sensor_id;sensor_type;location;lat;lon;timestamp;pressure;altitude;pressure_sealevel;temperature;humidity
62849;BME280;48941;49.516;8.286;2023-09-19T00:00:38;99883.84;;;17.80;94.64
62849;BME280;48941;49.516;8.286;2023-09-19T00:03:07;99891.19;;;17.71;95.22
62849;BME280;48941;49.516;8.286;2023-09-19T00:05:37;99894.22;;;17.68;95.33
62849;BME280;48941;49.516;8.286;2023-09-19T00:08:06;99885.97;;;17.70;95.05
62849;BME280;48941;49.516;8.286;2023-09-19T00:10:34;99898.97;;;17.66;95.19
62849;BME280;48941;49.516;8.286;2023-09-19T00:13:04;99911.41;;;17.67;95.13
62849;BME280;48941;49.516;8.286;2023-09-19T00:15:37;99912.44;;;17.66;95.25
62849;BME280;48941;49.516;8.286;2023-09-19T00:18:05;99909.38;;;17.69;94.95
62849;BME280;48941;49.516;8.286;2023-09-19T00:20:36;99906.03;;;17.67;94.91
62849;BME280;48941;49.516;8.286;2023-09-19T00:23:05;99902.13;;;17.70;94.86
62849;BME280;48941;49.516;8.286;2023-09-19T00:25:36;99900.16;;;17.64;94.93
62849;BME280;48941;49.516;8.286;2023-09-19T00:28:06;99911.22;;;17.69;94.64
62849;BME280;48941;49.516;8.286;2023-09-19T00:30:34;99906.47;;;17.71;94.45
62849;BME280;48941;49.516;8.286;2023-09-19T00:33:05;99916.97;;;17.66;95.01
62849;BME280;48941;49.516;8.286;2023-09-19T00:35:34;99917.63;;;17.68;94.68
62849;BME280;48941;49.516;8.286;2023-09-19T00:38:03;99921.81;;;17.70;94.64
62849;BME280;48941;49.516;8.286;2023-09-19T00:40:33;99925.34;;;17.71;94.60
62849;BME280;48941;49.516;8.286;2023-09-19T00:43:02;99919.94;;;17.71;94.56
62849;BME280;48941;49.516;8.286;2023-09-19T00:45:31;99932.25;;;17.74;94.24
62849;BME280;48941;49.516;8.286;2023-09-19T00:48:01;99925.00;;;17.74;94.41
62849;BME280;48941;49.516;8.286;2023-09-19T00:50:37;99921.91;;;17.77;94.18
62849;BME280;48941;49.516;8.286;2023-09-19T00:53:08;99913.66;;;17.79;94.11
62849;BME280;48941;49.516;8.286;2023-09-19T00:55:37;99925.66;;;17.76;94.35
62849;BME280;48941;49.516;8.286;2023-09-19T00:58:05;99925.81;;;17.75;94.51
62849;BME280;48941;49.516;8.286;2023-09-19T01:00:35;99924.44;;;17.79;94.18
62849;BME280;48941;49.516;8.286;2023-09-19T01:03:03;99925.00;;;17.74;94.55
62849;BME280;48941;49.516;8.286;2023-09-19T01:05:33;99919.59;;;17.74;94.27
62849;BME280;48941;49.516;8.286;2023-09-19T01:08:03;99933.41;;;17.71;94.85
62849;BME280;48941;49.516;8.286;2023-09-19T01:10:31;99942.53;;;17.70;95.06
62849;BME280;48941;49.516;8.286;2023-09-19T01:13:05;99937.88;;;17.64;95.72
62849;BME280;48941;49.516;8.286;2023-09-19T01:15:46;99946.28;;;17.61;96.07
62849;BME280;48941;49.516;8.286;2023-09-19T01:18:25;99944.16;;;17.56;96.22
62849;BME280;48941;49.516;8.286;2023-09-19T01:21:04;99949.53;;;17.56;97.04
62849;BME280;48941;49.516;8.286;2023-09-19T01:23:57;99955.56;;;17.58;96.42
62849;BME280;48941;49.516;8.286;2023-09-19T01:26:41;99948.16;;;17.60;96.34
62849;BME280;48941;49.516;8.286;2023-09-19T01:29:26;99955.19;;;17.61;96.38
62849;BME280;48941;49.516;8.286;2023-09-19T01:32:04;99958.03;;;17.68;96.41
62849;BME280;48941;49.516;8.286;2023-09-19T01:34:46;99956.94;;;17.77;95.58
62849;BME280;48941;49.516;8.286;2023-09-19T01:37:15;99957.94;;;17.84;95.29
62849;BME280;48941;49.516;8.286;2023-09-19T01:39:47;99964.47;;;17.90;95.01
62849;BME280;48941;49.516;8.286;2023-09-19T01:42:23;99973.84;;;17.94;94.69
62849;BME280;48941;49.516;8.286;2023-09-19T01:44:59;99977.84;;;17.98;94.79
62849;BME280;48941;49.516;8.286;2023-09-19T01:47:34;99969.22;;;18.03;94.67
62849;BME280;48941;49.516;8.286;2023-09-19T01:50:12;99971.75;;;18.04;94.32
62849;BME280;48941;49.516;8.286;2023-09-19T01:52:49;99974.44;;;18.04;94.35
62849;BME280;48941;49.516;8.286;2023-09-19T01:55:22;99974.25;;;18.06;94.76
62849;BME280;48941;49.516;8.286;2023-09-19T01:58:00;99981.31;;;18.07;94.45
62849;BME280;48941;49.516;8.286;2023-09-19T02:00:32;99986.53;;;18.08;94.30
62849;BME280;48941;49.516;8.286;2023-09-19T02:03:03;99984.66;;;18.09;94.32
62849;BME280;48941;49.516;8.286;2023-09-19T02:05:32;99987.19;;;18.10;94.39
62849;BME280;48941;49.516;8.286;2023-09-19T02:08:00;99984.47;;;18.10;93.92
62849;BME280;48941;49.516;8.286;2023-09-19T02:10:28;99988.88;;;18.11;94.37
62849;BME280;48941;49.516;8.286;2023-09-19T02:12:55;99995.09;;;18.12;94.32
62849;BME280;48941;49.516;8.286;2023-09-19T02:15:24;100001.13;;;18.14;93.87
62849;BME280;48941;49.516;8.286;2023-09-19T02:17:52;100011.91;;;18.14;93.73
62849;BME280;48941;49.516;8.286;2023-09-19T02:20:21;100014.59;;;18.14;93.67
62849;BME280;48941;49.516;8.286;2023-09-19T02:22:49;100016.28;;;18.15;94.18
62849;BME280;48941;49.516;8.286;2023-09-19T02:25:18;100016.34;;;18.07;94.72
62849;BME280;48941;49.516;8.286;2023-09-19T02:27:46;100017.72;;;18.03;94.50
62849;BME280;48941;49.516;8.286;2023-09-19T02:30:15;100023.84;;;17.97;95.47
62849;BME280;48941;49.516;8.286;2023-09-19T02:32:47;100035.34;;;17.90;95.58
62849;BME280;48941;49.516;8.286;2023-09-19T02:35:16;100030.78;;;17.91;95.57
62849;BME280;48941;49.516;8.286;2023-09-19T02:37:48;100029.66;;;17.85;96.15
62849;BME280;48941;49.516;8.286;2023-09-19T02:40:16;100035.72;;;17.87;95.87
62849;BME280;48941;49.516;8.286;2023-09-19T02:42:52;100036.72;;;17.86;95.77
62849;BME280;48941;49.516;8.286;2023-09-19T02:45:21;100032.34;;;17.85;95.90
62849;BME280;48941;49.516;8.286;2023-09-19T02:47:49;100043.97;;;17.86;95.45
62849;BME280;48941;49.516;8.286;2023-09-19T02:50:17;100046.28;;;17.89;94.98
62849;BME280;48941;49.516;8.286;2023-09-19T02:52:46;100042.22;;;17.93;94.92
62849;BME280;48941;49.516;8.286;2023-09-19T02:55:17;100039.16;;;17.96;93.81
62849;BME280;48941;49.516;8.286;2023-09-19T02:57:47;100043.41;;;17.90;94.25
62849;BME280;48941;49.516;8.286;2023-09-19T03:00:16;100044.25;;;17.91;94.12
62849;BME280;48941;49.516;8.286;2023-09-19T03:02:48;100038.84;;;17.91;92.90
62849;BME280;48941;49.516;8.286;2023-09-19T03:05:16;100042.94;;;17.87;93.02
62849;BME280;48941;49.516;8.286;2023-09-19T03:07:44;100048.16;;;17.88;92.50
62849;BME280;48941;49.516;8.286;2023-09-19T03:10:13;100056.06;;;17.90;91.91
62849;BME280;48941;49.516;8.286;2023-09-19T03:12:44;100055.56;;;17.86;92.25
62849;BME280;48941;49.516;8.286;2023-09-19T03:15:12;100058.78;;;17.82;92.10
62849;BME280;48941;49.516;8.286;2023-09-19T03:17:42;100068.56;;;17.75;92.04
62849;BME280;48941;49.516;8.286;2023-09-19T03:20:12;100067.41;;;17.69;91.73
62849;BME280;48941;49.516;8.286;2023-09-19T03:22:40;100066.47;;;17.62;90.48
62849;BME280;48941;49.516;8.286;2023-09-19T03:25:08;100073.72;;;17.53;90.87
62849;BME280;48941;49.516;8.286;2023-09-19T03:27:39;100064.19;;;17.42;90.66
62849;BME280;48941;49.516;8.286;2023-09-19T03:30:09;100072.28;;;17.42;89.71
62849;BME280;48941;49.516;8.286;2023-09-19T03:32:43;100075.50;;;17.38;89.48
62849;BME280;48941;49.516;8.286;2023-09-19T03:35:11;100070.94;;;17.38;89.23
62849;BME280;48941;49.516;8.286;2023-09-19T03:37:40;100071.78;;;17.39;88.32
62849;BME280;48941;49.516;8.286;2023-09-19T03:40:09;100073.16;;;17.35;88.60
62849;BME280;48941;49.516;8.286;2023-09-19T03:42:38;100079.22;;;17.28;89.08
62849;BME280;48941;49.516;8.286;2023-09-19T03:45:07;100080.75;;;17.23;88.29
62849;BME280;48941;49.516;8.286;2023-09-19T03:47:40;100075.53;;;17.21;88.88
62849;BME280;48941;49.516;8.286;2023-09-19T03:50:09;100084.13;;;17.25;88.13
62849;BME280;48941;49.516;8.286;2023-09-19T03:52:38;100078.91;;;17.23;88.59
62849;BME280;48941;49.516;8.286;2023-09-19T03:55:06;100091.22;;;17.18;89.05
62849;BME280;48941;49.516;8.286;2023-09-19T03:57:36;100076.25;;;17.15;88.12
62849;BME280;48941;49.516;8.286;2023-09-19T04:00:05;100085.88;;;17.09;87.34
62849;BME280;48941;49.516;8.286;2023-09-19T04:02:38;100092.25;;;17.08;87.25
62849;BME280;48941;49.516;8.286;2023-09-19T04:05:08;100087.91;;;17.07;86.44
62849;BME280;48941;49.516;8.286;2023-09-19T04:07:36;100093.59;;;17.04;86.30
62849;BME280;48941;49.516;8.286;2023-09-19T04:10:05;100096.13;;;17.06;85.85
62849;BME280;48941;49.516;8.286;2023-09-19T04:12:35;100093.44;;;17.06;85.43
62849;BME280;48941;49.516;8.286;2023-09-19T04:15:03;100088.38;;;17.03;85.18
62849;BME280;48941;49.516;8.286;2023-09-19T04:17:32;100088.56;;;17.01;85.21
62849;BME280;48941;49.516;8.286;2023-09-19T04:20:00;100085.69;;;17.03;85.21
62849;BME280;48941;49.516;8.286;2023-09-19T04:22:29;100096.31;;;16.96;85.85
62849;BME280;48941;49.516;8.286;2023-09-19T04:24:57;100101.88;;;16.95;85.51
62849;BME280;48941;49.516;8.286;2023-09-19T04:27:25;100102.56;;;16.88;85.72
62849;BME280;48941;49.516;8.286;2023-09-19T04:29:52;100108.59;;;16.90;85.76
62849;BME280;48941;49.516;8.286;2023-09-19T04:32:20;100102.56;;;16.88;85.86
62849;BME280;48941;49.516;8.286;2023-09-19T04:34:48;100105.91;;;16.90;84.52
62849;BME280;48941;49.516;8.286;2023-09-19T04:37:17;100108.59;;;16.90;84.35
62849;BME280;48941;49.516;8.286;2023-09-19T04:39:46;100117.19;;;16.86;84.95
62849;BME280;48941;49.516;8.286;2023-09-19T04:42:14;100120.72;;;16.86;84.17
62849;BME280;48941;49.516;8.286;2023-09-19T04:44:42;100111.63;;;16.87;84.43
62849;BME280;48941;49.516;8.286;2023-09-19T04:47:09;100119.38;;;16.90;84.07
62849;BME280;48941;49.516;8.286;2023-09-19T04:49:38;100128.78;;;16.86;83.87
62849;BME280;48941;49.516;8.286;2023-09-19T04:52:07;100137.00;;;16.85;84.65
62849;BME280;48941;49.516;8.286;2023-09-19T04:54:35;100137.84;;;16.85;84.13
62849;BME280;48941;49.516;8.286;2023-09-19T04:57:04;100147.78;;;16.85;85.06
62849;BME280;48941;49.516;8.286;2023-09-19T04:59:32;100149.97;;;16.89;84.53
62849;BME280;48941;49.516;8.286;2023-09-19T05:02:00;100150.97;;;16.88;84.91
62849;BME280;48941;49.516;8.286;2023-09-19T05:04:28;100159.03;;;16.88;85.23
62849;BME280;48941;49.516;8.286;2023-09-19T05:06:56;100167.09;;;16.88;85.23
62849;BME280;48941;49.516;8.286;2023-09-19T05:09:24;100162.06;;;16.85;85.48
62849;BME280;48941;49.516;8.286;2023-09-19T05:11:52;100161.41;;;16.91;84.36
62849;BME280;48941;49.516;8.286;2023-09-19T05:14:22;100155.66;;;16.95;84.08
62849;BME280;48941;49.516;8.286;2023-09-19T05:16:50;100158.19;;;17.04;83.12
62849;BME280;48941;49.516;8.286;2023-09-19T05:19:18;100163.91;;;17.09;82.89
62849;BME280;48941;49.516;8.286;2023-09-19T05:21:46;100166.25;;;17.04;83.21
62849;BME280;48941;49.516;8.286;2023-09-19T05:24:14;100167.25;;;17.11;82.36
62849;BME280;48941;49.516;8.286;2023-09-19T05:26:43;100167.44;;;17.10;82.27
62849;BME280;48941;49.516;8.286;2023-09-19T05:29:12;100171.97;;;17.09;82.51
62849;BME280;48941;49.516;8.286;2023-09-19T05:31:42;100175.81;;;17.07;83.01
62849;BME280;48941;49.516;8.286;2023-09-19T05:34:10;100169.75;;;17.13;82.14
62849;BME280;48941;49.516;8.286;2023-09-19T05:36:37;100170.97;;;17.02;83.50
62849;BME280;48941;49.516;8.286;2023-09-19T05:39:06;100174.16;;;17.06;82.80
62849;BME280;48941;49.516;8.286;2023-09-19T05:41:36;100177.00;;;17.04;83.34
62849;BME280;48941;49.516;8.286;2023-09-19T05:44:06;100175.81;;;17.07;82.80
62849;BME280;48941;49.516;8.286;2023-09-19T05:46:34;100175.81;;;17.07;83.27
62849;BME280;48941;49.516;8.286;2023-09-19T05:49:04;100178.84;;;17.12;82.63
62849;BME280;48941;49.516;8.286;2023-09-19T05:51:32;100178.19;;;17.10;82.95
62849;BME280;48941;49.516;8.286;2023-09-19T05:54:00;100183.22;;;17.13;82.68
62849;BME280;48941;49.516;8.286;2023-09-19T05:56:28;100187.09;;;17.10;82.59
62849;BME280;48941;49.516;8.286;2023-09-19T05:58:55;100198.38;;;17.06;83.61
62849;BME280;48941;49.516;8.286;2023-09-19T06:01:23;100193.28;;;17.19;82.70
62849;BME280;48941;49.516;8.286;2023-09-19T06:03:51;100202.69;;;17.23;82.41
62849;BME280;48941;49.516;8.286;2023-09-19T06:06:21;100208.28;;;17.22;82.74
62849;BME280;48941;49.516;8.286;2023-09-19T06:08:50;100216.00;;;17.25;82.42
62849;BME280;48941;49.516;8.286;2023-09-19T06:11:18;100213.97;;;17.27;82.66
62849;BME280;48941;49.516;8.286;2023-09-19T06:13:47;100221.53;;;17.23;83.47
62849;BME280;48941;49.516;8.286;2023-09-19T06:16:15;100224.75;;;17.27;83.23
62849;BME280;48941;49.516;8.286;2023-09-19T06:18:45;100228.97;;;17.29;83.53
62849;BME280;48941;49.516;8.286;2023-09-19T06:21:12;100224.25;;;17.31;83.07
62849;BME280;48941;49.516;8.286;2023-09-19T06:23:42;100230.63;;;17.30;81.11
62849;BME280;48941;49.516;8.286;2023-09-19T06:26:10;100239.72;;;17.29;82.00
62849;BME280;48941;49.516;8.286;2023-09-19T06:28:40;100231.66;;;17.29;82.22
62849;BME280;48941;49.516;8.286;2023-09-19T06:31:09;100236.69;;;17.32;82.12
62849;BME280;48941;49.516;8.286;2023-09-19T06:33:37;100233.81;;;17.34;80.21
62849;BME280;48941;49.516;8.286;2023-09-19T06:36:07;100227.78;;;17.32;79.39
62849;BME280;48941;49.516;8.286;2023-09-19T06:38:35;100234.16;;;17.31;79.78
62849;BME280;48941;49.516;8.286;2023-09-19T06:41:04;100224.25;;;17.31;79.73
62849;BME280;48941;49.516;8.286;2023-09-19T06:43:35;100219.34;;;17.35;79.99
62849;BME280;48941;49.516;8.286;2023-09-19T06:46:03;100230.78;;;17.37;78.87
62849;BME280;48941;49.516;8.286;2023-09-19T06:48:33;100222.50;;;17.47;78.51
62849;BME280;48941;49.516;8.286;2023-09-19T06:51:01;100231.25;;;17.49;79.36
62849;BME280;48941;49.516;8.286;2023-09-19T06:53:31;100237.31;;;17.51;77.75
62849;BME280;48941;49.516;8.286;2023-09-19T06:55:59;100242.88;;;17.58;77.58
62849;BME280;48941;49.516;8.286;2023-09-19T06:58:28;100239.47;;;17.64;76.92
62849;BME280;48941;49.516;8.286;2023-09-19T07:00:58;100244.69;;;17.74;76.99
62849;BME280;48941;49.516;8.286;2023-09-19T07:03:26;100253.25;;;17.85;76.58
62849;BME280;48941;49.516;8.286;2023-09-19T07:05:55;100250.16;;;17.97;75.96
62849;BME280;48941;49.516;8.286;2023-09-19T07:08:25;100259.22;;;18.12;74.52
62849;BME280;48941;49.516;8.286;2023-09-19T07:10:53;100256.34;;;18.14;73.56
62849;BME280;48941;49.516;8.286;2023-09-19T07:13:22;100259.69;;;18.16;73.97
62849;BME280;48941;49.516;8.286;2023-09-19T07:15:53;100255.94;;;18.25;73.94
62849;BME280;48941;49.516;8.286;2023-09-19T07:18:21;100256.91;;;18.32;73.84
62849;BME280;48941;49.516;8.286;2023-09-19T07:20:49;100268.84;;;18.38;74.16
62849;BME280;48941;49.516;8.286;2023-09-19T07:23:17;100268.81;;;18.46;72.88
62849;BME280;48941;49.516;8.286;2023-09-19T07:25:45;100273.31;;;18.54;73.43
62849;BME280;48941;49.516;8.286;2023-09-19T07:28:14;100272.59;;;18.60;73.59
62849;BME280;48941;49.516;8.286;2023-09-19T07:30:42;100281.66;;;18.67;72.85
62849;BME280;48941;49.516;8.286;2023-09-19T07:33:12;100291.56;;;18.75;71.36
62849;BME280;48941;49.516;8.286;2023-09-19T07:35:40;100293.56;;;18.81;70.36
62849;BME280;48941;49.516;8.286;2023-09-19T07:38:08;100298.25;;;18.87;70.44
62849;BME280;48941;49.516;8.286;2023-09-19T07:40:38;100299.22;;;18.94;70.33
62849;BME280;48941;49.516;8.286;2023-09-19T07:43:06;100295.97;;;18.99;69.98
62849;BME280;48941;49.516;8.286;2023-09-19T07:45:35;100303.53;;;19.03;68.66
62849;BME280;48941;49.516;8.286;2023-09-19T07:48:04;100298.19;;;19.18;68.82
62849;BME280;48941;49.516;8.286;2023-09-19T07:50:41;100305.31;;;19.34;68.15
62849;BME280;48941;49.516;8.286;2023-09-19T07:53:11;100302.63;;;19.49;66.78
62849;BME280;48941;49.516;8.286;2023-09-19T07:55:40;100306.19;;;19.64;66.77
62849;BME280;48941;49.516;8.286;2023-09-19T07:58:09;100311.38;;;19.74;64.16
62849;BME280;48941;49.516;8.286;2023-09-19T08:00:37;100323.50;;;19.78;62.50
62849;BME280;48941;49.516;8.286;2023-09-19T08:03:05;100317.59;;;19.75;61.40
62849;BME280;48941;49.516;8.286;2023-09-19T08:05:44;100323.16;;;19.58;60.82
62849;BME280;48941;49.516;8.286;2023-09-19T08:08:12;100324.84;;;19.59;61.61
62849;BME280;48941;49.516;8.286;2023-09-19T08:10:42;100320.16;;;19.53;62.05
62849;BME280;48941;49.516;8.286;2023-09-19T08:13:12;100332.06;;;19.44;63.55
62849;BME280;48941;49.516;8.286;2023-09-19T08:15:43;100330.09;;;19.38;61.97
62849;BME280;48941;49.516;8.286;2023-09-19T08:18:12;100338.03;;;19.39;62.87
62849;BME280;48941;49.516;8.286;2023-09-19T08:20:40;100346.94;;;19.40;63.27
62849;BME280;48941;49.516;8.286;2023-09-19T08:23:10;100347.97;;;19.39;63.48
62849;BME280;48941;49.516;8.286;2023-09-19T08:25:38;100342.22;;;19.42;62.81
62849;BME280;48941;49.516;8.286;2023-09-19T08:28:06;100352.63;;;19.45;59.74
62849;BME280;48941;49.516;8.286;2023-09-19T08:30:38;100345.84;;;19.49;60.46
62849;BME280;48941;49.516;8.286;2023-09-19T08:33:07;100349.56;;;19.48;60.53
62849;BME280;48941;49.516;8.286;2023-09-19T08:35:35;100342.22;;;19.42;60.50
62849;BME280;48941;49.516;8.286;2023-09-19T08:38:06;100359.50;;;19.33;60.91
62849;BME280;48941;49.516;8.286;2023-09-19T08:40:38;100345.63;;;19.36;61.48
62849;BME280;48941;49.516;8.286;2023-09-19T08:43:08;100346.13;;;19.39;61.92
62849;BME280;48941;49.516;8.286;2023-09-19T08:45:36;100356.94;;;19.54;62.84
62849;BME280;48941;49.516;8.286;2023-09-19T08:48:17;100347.84;;;19.70;58.99
62849;BME280;48941;49.516;8.286;2023-09-19T08:50:49;100362.81;;;19.81;56.98
62849;BME280;48941;49.516;8.286;2023-09-19T08:53:27;100358.00;;;19.91;57.36
62849;BME280;48941;49.516;8.286;2023-09-19T08:56:01;100361.72;;;19.90;54.80
62849;BME280;48941;49.516;8.286;2023-09-19T08:58:32;100363.66;;;19.96;54.13
62849;BME280;48941;49.516;8.286;2023-09-19T09:01:02;100369.91;;;19.97;53.03
62849;BME280;48941;49.516;8.286;2023-09-19T09:03:35;100354.72;;;19.96;53.37
62849;BME280;48941;49.516;8.286;2023-09-19T09:06:04;100359.97;;;19.97;52.78
62849;BME280;48941;49.516;8.286;2023-09-19T09:08:34;100365.38;;;20.12;53.37
62849;BME280;48941;49.516;8.286;2023-09-19T09:11:04;100361.72;;;20.20;53.93
62849;BME280;48941;49.516;8.286;2023-09-19T09:13:35;100364.78;;;20.17;54.19
62849;BME280;48941;49.516;8.286;2023-09-19T09:16:04;100373.94;;;20.16;52.94
62849;BME280;48941;49.516;8.286;2023-09-19T09:18:33;100377.47;;;20.16;52.54
62849;BME280;48941;49.516;8.286;2023-09-19T09:21:01;100379.97;;;20.03;53.25
62849;BME280;48941;49.516;8.286;2023-09-19T09:23:31;100379.06;;;19.96;53.58
62849;BME280;48941;49.516;8.286;2023-09-19T09:26:00;100375.66;;;19.79;53.44
62849;BME280;48941;49.516;8.286;2023-09-19T09:28:34;100382.75;;;19.80;54.01
62849;BME280;48941;49.516;8.286;2023-09-19T09:31:05;100376.97;;;19.83;53.88
62849;BME280;48941;49.516;8.286;2023-09-19T09:33:36;100379.69;;;19.83;53.61
62849;BME280;48941;49.516;8.286;2023-09-19T09:36:05;100368.25;;;19.96;53.59
62849;BME280;48941;49.516;8.286;2023-09-19T09:38:43;100377.09;;;20.04;53.94
62849;BME280;48941;49.516;8.286;2023-09-19T09:41:13;100379.06;;;20.10;54.35
62849;BME280;48941;49.516;8.286;2023-09-19T09:43:55;100374.03;;;20.37;54.21
62849;BME280;48941;49.516;8.286;2023-09-19T09:46:26;100378.84;;;20.57;52.09
62849;BME280;48941;49.516;8.286;2023-09-19T09:49:11;100370.28;;;20.83;51.30
62849;BME280;48941;49.516;8.286;2023-09-19T09:51:46;100370.75;;;21.08;50.64
62849;BME280;48941;49.516;8.286;2023-09-19T09:54:25;100366.16;;;21.30;50.35
62849;BME280;48941;49.516;8.286;2023-09-19T09:57:03;100369.22;;;21.63;49.67
62849;BME280;48941;49.516;8.286;2023-09-19T09:59:51;100359.16;;;21.85;48.78
62849;BME280;48941;49.516;8.286;2023-09-19T10:02:25;100353.78;;;21.92;48.22
62849;BME280;48941;49.516;8.286;2023-09-19T10:04:57;100352.88;;;22.13;47.91
62849;BME280;48941;49.516;8.286;2023-09-19T10:07:39;100353.22;;;22.32;47.27
62849;BME280;48941;49.516;8.286;2023-09-19T10:10:14;100342.91;;;22.55;46.03
62849;BME280;48941;49.516;8.286;2023-09-19T10:12:48;100342.53;;;22.78;45.76
62849;BME280;48941;49.516;8.286;2023-09-19T10:15:18;100337.97;;;22.92;45.11
62849;BME280;48941;49.516;8.286;2023-09-19T10:17:48;100333.47;;;23.13;44.90
62849;BME280;48941;49.516;8.286;2023-09-19T10:20:17;100327.84;;;23.34;45.18
62849;BME280;48941;49.516;8.286;2023-09-19T10:23:01;100338.72;;;23.61;43.93
62849;BME280;48941;49.516;8.286;2023-09-19T10:25:36;100339.34;;;23.70;42.10
62849;BME280;48941;49.516;8.286;2023-09-19T10:28:06;100344.16;;;23.67;41.58
62849;BME280;48941;49.516;8.286;2023-09-19T10:30:43;100341.88;;;23.78;41.64
62849;BME280;48941;49.516;8.286;2023-09-19T10:33:12;100334.09;;;23.88;41.34
62849;BME280;48941;49.516;8.286;2023-09-19T10:35:44;100341.22;;;23.62;41.10
62849;BME280;48941;49.516;8.286;2023-09-19T10:38:13;100336.22;;;23.59;40.92
62849;BME280;48941;49.516;8.286;2023-09-19T10:40:49;100330.34;;;23.69;41.34
62849;BME280;48941;49.516;8.286;2023-09-19T10:43:17;100333.47;;;23.86;41.52
62849;BME280;48941;49.516;8.286;2023-09-19T10:45:49;100335.97;;;24.01;40.75
62849;BME280;48941;49.516;8.286;2023-09-19T10:48:20;100346.63;;;24.09;39.93
62849;BME280;48941;49.516;8.286;2023-09-19T10:50:57;100338.06;;;24.05;40.06
62849;BME280;48941;49.516;8.286;2023-09-19T10:53:29;100348.53;;;24.02;40.06
62849;BME280;48941;49.516;8.286;2023-09-19T10:55:59;100344.56;;;23.91;40.46
62849;BME280;48941;49.516;8.286;2023-09-19T10:58:36;100340.56;;;24.00;40.31
62849;BME280;48941;49.516;8.286;2023-09-19T11:01:08;100341.59;;;24.06;40.26
62849;BME280;48941;49.516;8.286;2023-09-19T11:03:39;100346.03;;;23.94;40.53
62849;BME280;48941;49.516;8.286;2023-09-19T11:06:12;100330.53;;;24.01;40.38
62849;BME280;48941;49.516;8.286;2023-09-19T11:08:59;100336.59;;;24.10;40.12
62849;BME280;48941;49.516;8.286;2023-09-19T11:11:44;100321.13;;;23.97;40.66
62849;BME280;48941;49.516;8.286;2023-09-19T11:14:42;100316.94;;;24.01;40.55
62849;BME280;48941;49.516;8.286;2023-09-19T11:17:32;100320.25;;;24.10;40.39
62849;BME280;48941;49.516;8.286;2023-09-19T11:20:18;100321.25;;;24.22;39.75
62849;BME280;48941;49.516;8.286;2023-09-19T11:23:18;100315.13;;;24.40;39.60
62849;BME280;48941;49.516;8.286;2023-09-19T11:25:50;100314.44;;;24.58;40.13
62849;BME280;48941;49.516;8.286;2023-09-19T11:28:30;100312.44;;;24.85;40.21
62849;BME280;48941;49.516;8.286;2023-09-19T11:30:58;100313.81;;;24.94;39.51
62849;BME280;48941;49.516;8.286;2023-09-19T11:33:28;100302.81;;;25.14;39.14
62849;BME280;48941;49.516;8.286;2023-09-19T11:35:59;100309.47;;;25.25;37.26
62849;BME280;48941;49.516;8.286;2023-09-19T11:38:57;100309.25;;;25.27;38.63
62849;BME280;48941;49.516;8.286;2023-09-19T11:41:38;100305.94;;;25.43;37.11
62849;BME280;48941;49.516;8.286;2023-09-19T11:44:33;100309.91;;;25.47;36.80
62849;BME280;48941;49.516;8.286;2023-09-19T11:47:05;100301.91;;;25.52;36.07
62849;BME280;48941;49.516;8.286;2023-09-19T11:49:35;100294.22;;;25.42;36.93
62849;BME280;48941;49.516;8.286;2023-09-19T11:52:08;100299.22;;;25.46;36.99
62849;BME280;48941;49.516;8.286;2023-09-19T11:54:37;100294.66;;;25.64;37.77
62849;BME280;48941;49.516;8.286;2023-09-19T11:57:09;100282.25;;;25.87;37.26
62849;BME280;48941;49.516;8.286;2023-09-19T11:59:39;100288.34;;;26.08;37.11
62849;BME280;48941;49.516;8.286;2023-09-19T12:02:07;100291.06;;;26.26;36.95
62849;BME280;48941;49.516;8.286;2023-09-19T12:04:39;100278.81;;;26.47;36.52
62849;BME280;48941;49.516;8.286;2023-09-19T12:07:12;100277.06;;;26.53;35.47
62849;BME280;48941;49.516;8.286;2023-09-19T12:09:42;100270.59;;;26.66;35.79
62849;BME280;48941;49.516;8.286;2023-09-19T12:12:19;100283.38;;;26.83;35.40
62849;BME280;48941;49.516;8.286;2023-09-19T12:14:47;100273.44;;;27.01;33.97
62849;BME280;48941;49.516;8.286;2023-09-19T12:17:16;100277.22;;;26.88;34.32
62849;BME280;48941;49.516;8.286;2023-09-19T12:19:51;100282.44;;;26.90;34.48
62849;BME280;48941;49.516;8.286;2023-09-19T12:22:19;100276.22;;;26.71;34.86
62849;BME280;48941;49.516;8.286;2023-09-19T12:24:48;100270.03;;;26.75;35.09
62849;BME280;48941;49.516;8.286;2023-09-19T12:27:17;100266.97;;;26.83;35.74
62849;BME280;48941;49.516;8.286;2023-09-19T12:29:46;100258.00;;;26.95;34.87
62849;BME280;48941;49.516;8.286;2023-09-19T12:32:16;100252.19;;;27.15;34.21
62849;BME280;48941;49.516;8.286;2023-09-19T12:34:54;100257.41;;;26.93;35.05
62849;BME280;48941;49.516;8.286;2023-09-19T12:37:22;100268.69;;;26.96;35.18
62849;BME280;48941;49.516;8.286;2023-09-19T12:40:03;100262.44;;;26.77;34.78
62849;BME280;48941;49.516;8.286;2023-09-19T12:42:42;100258.78;;;26.53;36.16
62849;BME280;48941;49.516;8.286;2023-09-19T12:45:11;100254.84;;;26.49;35.35
62849;BME280;48941;49.516;8.286;2023-09-19T12:51:00;100246.19;;;26.52;35.45
62849;BME280;48941;49.516;8.286;2023-09-19T12:53:33;100248.38;;;26.62;35.84
62849;BME280;48941;49.516;8.286;2023-09-19T12:56:05;100243.81;;;26.56;36.12
62849;BME280;48941;49.516;8.286;2023-09-19T12:58:48;100242.00;;;26.68;35.09
62849;BME280;48941;49.516;8.286;2023-09-19T13:01:16;100235.91;;;26.36;35.08
62849;BME280;48941;49.516;8.286;2023-09-19T13:03:45;100236.88;;;26.41;35.35
62849;BME280;48941;49.516;8.286;2023-09-19T13:06:14;100236.75;;;26.36;35.23
62849;BME280;48941;49.516;8.286;2023-09-19T13:08:44;100226.22;;;26.52;34.88
62849;BME280;48941;49.516;8.286;2023-09-19T13:11:20;100224.88;;;26.61;35.18
62849;BME280;48941;49.516;8.286;2023-09-19T13:13:50;100228.66;;;26.60;34.79
62849;BME280;48941;49.516;8.286;2023-09-19T13:16:21;100225.34;;;26.58;35.69